sensor_id;sensor_type;location;lat;lon;timestamp;pressure;altitude;pressure_sealevel;temperature;humidity
32452;BME280;45528;52.102;5.242;2022-07-29T00:02:32;101434.0;;;23.34;44.8
32452;BME280;45528;52.102;5.242;2022-07-29T00:04:19;101432.0;;;23.21;45.2
32452;BME280;45528;52.102;5.242;2022-07-29T00:06:06;101435.0;;;23.23;45.3
32452;BME280;45528;52.102;5.242;2022-07-29T00:07:53;101431.0;;;23.22;45.32
32452;BME280;45528;52.102;5.242;2022-07-29T00:09:40;101430.0;;;23.09;45.6
32452;BME280;45528;52.102;5.242;2022-07-29T00:11:28;101426.0;;;23.08;45.67
32452;BME280;45528;52.102;5.242;2022-07-29T00:15:01;101425.0;;;23.02;45.72
32452;BME280;45528;52.102;5.242;2022-07-29T00:16:48;101421.0;;;23.04;45.71
32452;BME280;45528;52.102;5.242;2022-07-29T00:18:34;101417.0;;;23.08;45.57
32452;BME280;45528;52.102;5.242;2022-07-29T00:20:20;101417.0;;;22.87;45.93
32452;BME280;45528;52.102;5.242;2022-07-29T00:22:06;101410.0;;;23.06;46.0
32452;BME280;45528;52.102;5.242;2022-07-29T00:23:54;101415.0;;;23.04;45.78
32452;BME280;45528;52.102;5.242;2022-07-29T00:27:26;101415.0;;;23.0;45.65
32452;BME280;45528;52.102;5.242;2022-07-29T00:29:12;101412.0;;;23.02;45.81
32452;BME280;45528;52.102;5.242;2022-07-29T00:30:58;101405.0;;;22.93;46.02
32452;BME280;45528;52.102;5.242;2022-07-29T00:32:44;101403.0;;;22.97;45.88
32452;BME280;45528;52.102;5.242;2022-07-29T00:37:33;101398.0;;;23.04;45.82
32452;BME280;45528;52.102;5.242;2022-07-29T00:39:19;101397.0;;;22.99;45.91
32452;BME280;45528;52.102;5.242;2022-07-29T00:41:05;101396.0;;;22.81;46.25
32452;BME280;45528;52.102;5.242;2022-07-29T00:42:52;101394.0;;;22.71;46.41
32452;BME280;45528;52.102;5.242;2022-07-29T00:46:25;101388.0;;;22.46;46.8
32452;BME280;45528;52.102;5.242;2022-07-29T00:48:12;101389.0;;;22.59;46.79
32452;BME280;45528;52.102;5.242;2022-07-29T00:49:59;101386.0;;;22.72;46.48
32452;BME280;45528;52.102;5.242;2022-07-29T00:51:48;101383.0;;;22.65;46.77
32452;BME280;45528;52.102;5.242;2022-07-29T00:53:35;101383.0;;;22.69;46.67
32452;BME280;45528;52.102;5.242;2022-07-29T00:55:22;101377.0;;;22.63;46.77
32452;BME280;45528;52.102;5.242;2022-07-29T00:58:57;101377.0;;;22.72;46.62
32452;BME280;45528;52.102;5.242;2022-07-29T01:00:44;101374.0;;;22.72;46.79
32452;BME280;45528;52.102;5.242;2022-07-29T01:02:31;101375.0;;;22.56;46.88
32452;BME280;45528;52.102;5.242;2022-07-29T01:04:18;101371.0;;;22.64;46.62
32452;BME280;45528;52.102;5.242;2022-07-29T01:06:05;101373.0;;;22.74;46.39
32452;BME280;45528;52.102;5.242;2022-07-29T01:07:54;101371.0;;;22.64;46.83
32452;BME280;45528;52.102;5.242;2022-07-29T01:11:32;101366.0;;;22.66;46.81
32452;BME280;45528;52.102;5.242;2022-07-29T01:13:20;101370.0;;;22.6;46.7
32452;BME280;45528;52.102;5.242;2022-07-29T01:15:08;101366.0;;;22.57;46.7
32452;BME280;45528;52.102;5.242;2022-07-29T01:16:58;101365.0;;;22.52;46.88
32452;BME280;45528;52.102;5.242;2022-07-29T01:19:05;101364.0;;;22.51;46.99
32452;BME280;45528;52.102;5.242;2022-07-29T01:21:16;101365.0;;;22.52;46.9
32452;BME280;45528;52.102;5.242;2022-07-29T01:24:14;101364.0;;;22.54;47.07
32452;BME280;45528;52.102;5.242;2022-07-29T01:26:52;101361.0;;;22.52;46.85
32452;BME280;45528;52.102;5.242;2022-07-29T01:28:52;101361.0;;;22.46;47.27
32452;BME280;45528;52.102;5.242;2022-07-29T01:30:47;101367.0;;;22.47;46.99
32452;BME280;45528;52.102;5.242;2022-07-29T01:36:23;101367.0;;;22.31;47.35
32452;BME280;45528;52.102;5.242;2022-07-29T01:38:16;101366.0;;;22.36;47.29
32452;BME280;45528;52.102;5.242;2022-07-29T01:40:11;101371.0;;;22.48;47.05
32452;BME280;45528;52.102;5.242;2022-07-29T01:42:12;101371.0;;;22.44;47.07
32452;BME280;45528;52.102;5.242;2022-07-29T01:44:10;101370.0;;;22.34;47.28
32452;BME280;45528;52.102;5.242;2022-07-29T01:46:02;101371.0;;;22.35;47.24
32452;BME280;45528;52.102;5.242;2022-07-29T01:47:57;101371.0;;;22.31;47.38
32452;BME280;45528;52.102;5.242;2022-07-29T01:49:51;101368.0;;;22.3;47.33
32452;BME280;45528;52.102;5.242;2022-07-29T01:51:44;101371.0;;;22.27;47.23
32452;BME280;45528;52.102;5.242;2022-07-29T01:55:40;101372.0;;;22.31;47.29
32452;BME280;45528;52.102;5.242;2022-07-29T01:57:31;101368.0;;;22.3;47.33
32452;BME280;45528;52.102;5.242;2022-07-29T01:59:20;101367.0;;;22.35;47.16
32452;BME280;45528;52.102;5.242;2022-07-29T02:01:08;101365.0;;;22.3;47.39
32452;BME280;45528;52.102;5.242;2022-07-29T02:02:58;101370.0;;;22.33;47.28
32452;BME280;45528;52.102;5.242;2022-07-29T02:04:49;101368.0;;;22.36;47.3
32452;BME280;45528;52.102;5.242;2022-07-29T02:06:38;101365.0;;;22.25;47.39
32452;BME280;45528;52.102;5.242;2022-07-29T02:08:28;101364.0;;;22.24;47.46
32452;BME280;45528;52.102;5.242;2022-07-29T02:12:09;101364.0;;;22.27;47.37
32452;BME280;45528;52.102;5.242;2022-07-29T02:14:00;101365.0;;;22.31;47.21
32452;BME280;45528;52.102;5.242;2022-07-29T02:15:48;101369.0;;;22.31;47.48
32452;BME280;45528;52.102;5.242;2022-07-29T02:17:41;101368.0;;;22.29;47.55
32452;BME280;45528;52.102;5.242;2022-07-29T02:19:31;101362.0;;;22.25;47.91
32452;BME280;45528;52.102;5.242;2022-07-29T02:21:21;101363.0;;;22.19;47.91
32452;BME280;45528;52.102;5.242;2022-07-29T02:23:11;101366.0;;;22.22;47.92
32452;BME280;45528;52.102;5.242;2022-07-29T02:26:48;101359.0;;;22.1;47.94
32452;BME280;45528;52.102;5.242;2022-07-29T02:28:36;101357.0;;;22.31;47.9
32452;BME280;45528;52.102;5.242;2022-07-29T02:30:24;101360.0;;;22.14;48.16
32452;BME280;45528;52.102;5.242;2022-07-29T02:32:13;101361.0;;;22.18;47.98
32452;BME280;45528;52.102;5.242;2022-07-29T02:34:03;101362.0;;;22.14;48.04
32452;BME280;45528;52.102;5.242;2022-07-29T02:35:52;101360.0;;;22.12;48.07
32452;BME280;45528;52.102;5.242;2022-07-29T02:39:30;101361.0;;;22.15;48.02
32452;BME280;45528;52.102;5.242;2022-07-29T02:41:20;101357.0;;;22.12;48.2
32452;BME280;45528;52.102;5.242;2022-07-29T02:43:09;101355.0;;;22.21;47.89
32452;BME280;45528;52.102;5.242;2022-07-29T02:44:57;101352.0;;;22.18;47.97
32452;BME280;45528;52.102;5.242;2022-07-29T02:46:47;101355.0;;;22.15;48.13
32452;BME280;45528;52.102;5.242;2022-07-29T02:48:38;101355.0;;;22.17;48.04
32452;BME280;45528;52.102;5.242;2022-07-29T02:50:32;101355.0;;;22.11;48.04
32452;BME280;45528;52.102;5.242;2022-07-29T02:54:20;101356.0;;;22.18;47.83
32452;BME280;45528;52.102;5.242;2022-07-29T02:56:13;101351.0;;;22.15;48.18
32452;BME280;45528;52.102;5.242;2022-07-29T02:58:03;101355.0;;;22.15;48.44
32452;BME280;45528;52.102;5.242;2022-07-29T02:59:52;101357.0;;;22.16;48.19
32452;BME280;45528;52.102;5.242;2022-07-29T03:01:43;101352.0;;;22.14;48.37
32452;BME280;45528;52.102;5.242;2022-07-29T03:03:34;101355.0;;;22.11;48.35
32452;BME280;45528;52.102;5.242;2022-07-29T03:05:22;101347.0;;;22.11;48.48
32452;BME280;45528;52.102;5.242;2022-07-29T03:07:10;101346.0;;;22.02;48.41
32452;BME280;45528;52.102;5.242;2022-07-29T03:10:47;101343.0;;;22.03;48.63
32452;BME280;45528;52.102;5.242;2022-07-29T03:12:35;101347.0;;;22.02;48.37
32452;BME280;45528;52.102;5.242;2022-07-29T03:14:23;101343.0;;;21.99;48.39
32452;BME280;45528;52.102;5.242;2022-07-29T03:16:10;101345.0;;;21.98;48.38
32452;BME280;45528;52.102;5.242;2022-07-29T03:17:59;101339.0;;;22.02;48.44
32452;BME280;45528;52.102;5.242;2022-07-29T03:19:46;101336.0;;;21.99;48.26
32452;BME280;45528;52.102;5.242;2022-07-29T03:23:22;101332.0;;;22.03;48.43
32452;BME280;45528;52.102;5.242;2022-07-29T03:25:11;101334.0;;;21.95;48.42
32452;BME280;45528;52.102;5.242;2022-07-29T03:27:00;101337.0;;;22.11;48.2
32452;BME280;45528;52.102;5.242;2022-07-29T03:28:46;101335.0;;;22.1;48.13
32452;BME280;45528;52.102;5.242;2022-07-29T03:30:33;101331.0;;;22.05;48.29
32452;BME280;45528;52.102;5.242;2022-07-29T03:32:20;101325.0;;;22.05;48.12
32452;BME280;45528;52.102;5.242;2022-07-29T03:35:52;101323.0;;;21.99;48.31
32452;BME280;45528;52.102;5.242;2022-07-29T03:37:38;101326.0;;;22.05;48.53
32452;BME280;45528;52.102;5.242;2022-07-29T03:39:27;101325.0;;;22.0;48.16
32452;BME280;45528;52.102;5.242;2022-07-29T03:41:18;101325.0;;;22.08;48.21
32452;BME280;45528;52.102;5.242;2022-07-29T03:43:06;101325.0;;;21.98;48.41
32452;BME280;45528;52.102;5.242;2022-07-29T03:44:57;101319.0;;;21.91;48.41
32452;BME280;45528;52.102;5.242;2022-07-29T03:46:45;101319.0;;;21.95;48.77
32452;BME280;45528;52.102;5.242;2022-07-29T03:50:25;101315.0;;;22.01;48.38
32452;BME280;45528;52.102;5.242;2022-07-29T03:52:13;101315.0;;;22.0;48.43
32452;BME280;45528;52.102;5.242;2022-07-29T03:54:00;101318.0;;;22.09;48.44
32452;BME280;45528;52.102;5.242;2022-07-29T03:55:52;101320.0;;;22.06;48.1
32452;BME280;45528;52.102;5.242;2022-07-29T03:57:40;101322.0;;;22.08;48.01
32452;BME280;45528;52.102;5.242;2022-07-29T03:59:30;101321.0;;;22.05;48.32
32452;BME280;45528;52.102;5.242;2022-07-29T04:03:07;101324.0;;;22.01;48.24
32452;BME280;45528;52.102;5.242;2022-07-29T04:04:55;101321.0;;;22.04;48.34
32452;BME280;45528;52.102;5.242;2022-07-29T04:06:44;101319.0;;;22.02;48.28
32452;BME280;45528;52.102;5.242;2022-07-29T04:08:31;101317.0;;;22.03;48.26
32452;BME280;45528;52.102;5.242;2022-07-29T04:10:19;101318.0;;;22.07;48.21
32452;BME280;45528;52.102;5.242;2022-07-29T04:12:06;101315.0;;;22.04;48.36
32452;BME280;45528;52.102;5.242;2022-07-29T04:15:39;101314.0;;;21.87;48.32
32452;BME280;45528;52.102;5.242;2022-07-29T04:17:25;101314.0;;;21.94;48.33
32452;BME280;45528;52.102;5.242;2022-07-29T04:19:11;101313.0;;;21.91;48.61
32452;BME280;45528;52.102;5.242;2022-07-29T04:21:00;101313.0;;;21.95;48.49
32452;BME280;45528;52.102;5.242;2022-07-29T04:22:47;101315.0;;;21.98;48.29
32452;BME280;45528;52.102;5.242;2022-07-29T04:24:34;101313.0;;;21.89;48.5
32452;BME280;45528;52.102;5.242;2022-07-29T04:28:08;101309.0;;;21.9;48.39
32452;BME280;45528;52.102;5.242;2022-07-29T04:29:56;101308.0;;;21.86;48.6
32452;BME280;45528;52.102;5.242;2022-07-29T04:31:43;101309.0;;;21.98;48.31
32452;BME280;45528;52.102;5.242;2022-07-29T04:33:29;101309.0;;;22.06;48.3
32452;BME280;45528;52.102;5.242;2022-07-29T04:35:15;101311.0;;;21.99;48.25
32452;BME280;45528;52.102;5.242;2022-07-29T04:37:01;101311.0;;;22.04;48.35
32452;BME280;45528;52.102;5.242;2022-07-29T04:40:36;101309.0;;;22.07;48.26
32452;BME280;45528;52.102;5.242;2022-07-29T04:42:22;101314.0;;;22.13;48.15
32452;BME280;45528;52.102;5.242;2022-07-29T04:44:08;101317.0;;;22.08;48.08
32452;BME280;45528;52.102;5.242;2022-07-29T04:45:54;101318.0;;;22.06;48.21
32452;BME280;45528;52.102;5.242;2022-07-29T04:47:41;101318.0;;;22.09;48.08
32452;BME280;45528;52.102;5.242;2022-07-29T04:51:14;101320.0;;;22.13;48.01
32452;BME280;45528;52.102;5.242;2022-07-29T04:53:02;101324.0;;;22.09;48.27
32452;BME280;45528;52.102;5.242;2022-07-29T04:54:49;101330.0;;;22.13;48.5
32452;BME280;45528;52.102;5.242;2022-07-29T04:56:35;101324.0;;;22.06;48.33
32452;BME280;45528;52.102;5.242;2022-07-29T04:58:23;101332.0;;;22.16;48.28
32452;BME280;45528;52.102;5.242;2022-07-29T05:00:10;101327.0;;;22.26;47.74
32452;BME280;45528;52.102;5.242;2022-07-29T05:03:44;101324.0;;;22.11;48.1
32452;BME280;45528;52.102;5.242;2022-07-29T05:05:30;101324.0;;;22.02;48.19
32452;BME280;45528;52.102;5.242;2022-07-29T05:07:17;101322.0;;;22.17;47.95
32452;BME280;45528;52.102;5.242;2022-07-29T05:09:03;101319.0;;;22.26;47.74
32452;BME280;45528;52.102;5.242;2022-07-29T05:10:51;101324.0;;;22.3;47.9
32452;BME280;45528;52.102;5.242;2022-07-29T05:12:37;101323.0;;;22.33;47.71
32452;BME280;45528;52.102;5.242;2022-07-29T05:16:10;101325.0;;;22.39;47.59
32452;BME280;45528;52.102;5.242;2022-07-29T05:17:56;101326.0;;;22.2;47.9
32452;BME280;45528;52.102;5.242;2022-07-29T05:19:42;101321.0;;;22.16;48.35
32452;BME280;45528;52.102;5.242;2022-07-29T05:21:30;101321.0;;;22.28;47.91
32452;BME280;45528;52.102;5.242;2022-07-29T05:23:16;101314.0;;;22.35;47.99
32452;BME280;45528;52.102;5.242;2022-07-29T05:26:50;101318.0;;;22.33;47.88
32452;BME280;45528;52.102;5.242;2022-07-29T05:28:37;101320.0;;;22.31;48.06
32452;BME280;45528;52.102;5.242;2022-07-29T05:30:23;101328.0;;;22.42;47.89
32452;BME280;45528;52.102;5.242;2022-07-29T05:32:11;101325.0;;;22.23;47.93
32452;BME280;45528;52.102;5.242;2022-07-29T05:33:58;101330.0;;;22.38;47.87
32452;BME280;45528;52.102;5.242;2022-07-29T05:35:44;101325.0;;;22.42;48.1
32452;BME280;45528;52.102;5.242;2022-07-29T05:39:17;101326.0;;;22.42;47.75
32452;BME280;45528;52.102;5.242;2022-07-29T05:41:04;101330.0;;;22.24;48.09
32452;BME280;45528;52.102;5.242;2022-07-29T05:42:51;101330.0;;;22.45;47.8
32452;BME280;45528;52.102;5.242;2022-07-29T05:44:38;101335.0;;;22.52;47.99
32452;BME280;45528;52.102;5.242;2022-07-29T05:46:25;101338.0;;;22.55;47.72
32452;BME280;45528;52.102;5.242;2022-07-29T05:48:12;101340.0;;;22.48;47.59
32452;BME280;45528;52.102;5.242;2022-07-29T05:51:44;101346.0;;;22.52;47.66
32452;BME280;45528;52.102;5.242;2022-07-29T05:53:31;101347.0;;;22.65;47.51
32452;BME280;45528;52.102;5.242;2022-07-29T05:55:18;101347.0;;;22.62;47.62
32452;BME280;45528;52.102;5.242;2022-07-29T05:57:05;101345.0;;;22.62;47.72
32452;BME280;45528;52.102;5.242;2022-07-29T05:58:52;101350.0;;;22.71;47.62
32452;BME280;45528;52.102;5.242;2022-07-29T06:00:40;101349.0;;;22.72;47.38
32452;BME280;45528;52.102;5.242;2022-07-29T06:04:12;101345.0;;;22.72;47.55
32452;BME280;45528;52.102;5.242;2022-07-29T06:05:59;101343.0;;;22.73;47.73
32452;BME280;45528;52.102;5.242;2022-07-29T06:07:46;101342.0;;;22.72;47.31
32452;BME280;45528;52.102;5.242;2022-07-29T06:09:32;101339.0;;;22.6;47.34
32452;BME280;45528;52.102;5.242;2022-07-29T06:11:19;101339.0;;;22.76;47.59
32452;BME280;45528;52.102;5.242;2022-07-29T06:14:51;101340.0;;;22.57;47.66
32452;BME280;45528;52.102;5.242;2022-07-29T06:16:38;101339.0;;;22.71;47.42
32452;BME280;45528;52.102;5.242;2022-07-29T06:18:24;101336.0;;;22.64;47.71
32452;BME280;45528;52.102;5.242;2022-07-29T06:20:10;101342.0;;;22.69;47.6
32452;BME280;45528;52.102;5.242;2022-07-29T06:21:57;101347.0;;;22.76;47.69
32452;BME280;45528;52.102;5.242;2022-07-29T06:23:45;101346.0;;;22.95;47.16
32452;BME280;45528;52.102;5.242;2022-07-29T06:27:20;101344.0;;;22.86;47.66
32452;BME280;45528;52.102;5.242;2022-07-29T06:29:08;101350.0;;;22.95;47.67
32452;BME280;45528;52.102;5.242;2022-07-29T06:30:55;101352.0;;;22.96;47.3
32452;BME280;45528;52.102;5.242;2022-07-29T06:32:42;101356.0;;;23.04;47.37
32452;BME280;45528;52.102;5.242;2022-07-29T06:34:28;101360.0;;;23.16;46.96
32452;BME280;45528;52.102;5.242;2022-07-29T06:36:14;101363.0;;;23.21;46.73
32452;BME280;45528;52.102;5.242;2022-07-29T06:41:00;101371.0;;;23.24;46.35
32452;BME280;45528;52.102;5.242;2022-07-29T06:42:46;101375.0;;;23.53;45.64
32452;BME280;45528;52.102;5.242;2022-07-29T06:46:21;101378.0;;;23.57;45.59
32452;BME280;45528;52.102;5.242;2022-07-29T06:48:08;101378.0;;;23.72;45.39
32452;BME280;45528;52.102;5.242;2022-07-29T06:49:55;101380.0;;;23.53;45.74
32452;BME280;45528;52.102;5.242;2022-07-29T06:51:41;101385.0;;;23.75;45.53
32452;BME280;45528;52.102;5.242;2022-07-29T06:53:28;101387.0;;;23.71;45.21
32452;BME280;45528;52.102;5.242;2022-07-29T06:55:16;101391.0;;;23.94;44.43
32452;BME280;45528;52.102;5.242;2022-07-29T06:58:48;101394.0;;;24.04;44.9
32452;BME280;45528;52.102;5.242;2022-07-29T07:00:34;101394.0;;;23.8;44.37
32452;BME280;45528;52.102;5.242;2022-07-29T07:02:21;101388.0;;;23.82;44.43
32452;BME280;45528;52.102;5.242;2022-07-29T07:04:09;101390.0;;;23.86;44.46
32452;BME280;45528;52.102;5.242;2022-07-29T07:05:56;101391.0;;;23.8;44.69
32452;BME280;45528;52.102;5.242;2022-07-29T07:07:43;101393.0;;;23.8;44.35
32452;BME280;45528;52.102;5.242;2022-07-29T07:11:15;101390.0;;;23.72;44.52
32452;BME280;45528;52.102;5.242;2022-07-29T07:13:02;101394.0;;;23.81;44.9
32452;BME280;45528;52.102;5.242;2022-07-29T07:14:49;101393.0;;;23.88;44.66
32452;BME280;45528;52.102;5.242;2022-07-29T07:16:36;101390.0;;;23.86;44.34
32452;BME280;45528;52.102;5.242;2022-07-29T07:18:22;101393.0;;;23.92;44.51
32452;BME280;45528;52.102;5.242;2022-07-29T07:21:55;101392.0;;;23.8;44.71
32452;BME280;45528;52.102;5.242;2022-07-29T07:23:42;101396.0;;;23.77;45.08
32452;BME280;45528;52.102;5.242;2022-07-29T07:25:28;101389.0;;;23.78;44.5
32452;BME280;45528;52.102;5.242;2022-07-29T07:27:14;101393.0;;;23.77;45.2
32452;BME280;45528;52.102;5.242;2022-07-29T07:29:01;101390.0;;;23.74;44.75
32452;BME280;45528;52.102;5.242;2022-07-29T07:30:47;101394.0;;;23.83;44.69
32452;BME280;45528;52.102;5.242;2022-07-29T07:34:21;101400.0;;;23.91;44.74
32452;BME280;45528;52.102;5.242;2022-07-29T07:36:07;101398.0;;;23.91;44.46
32452;BME280;45528;52.102;5.242;2022-07-29T07:37:53;101391.0;;;24.09;44.16
32452;BME280;45528;52.102;5.242;2022-07-29T07:39:41;101386.0;;;24.26;44.04
32452;BME280;45528;52.102;5.242;2022-07-29T07:41:28;101391.0;;;24.45;44.12
32452;BME280;45528;52.102;5.242;2022-07-29T07:43:14;101384.0;;;24.59;43.44
32452;BME280;45528;52.102;5.242;2022-07-29T07:46:46;101383.0;;;24.52;43.4
32452;BME280;45528;52.102;5.242;2022-07-29T07:48:34;101378.0;;;24.4;43.84
32452;BME280;45528;52.102;5.242;2022-07-29T07:50:21;101374.0;;;24.51;43.61
32452;BME280;45528;52.102;5.242;2022-07-29T07:52:07;101367.0;;;24.62;43.7
32452;BME280;45528;52.102;5.242;2022-07-29T07:53:54;101370.0;;;24.61;43.81
32452;BME280;45528;52.102;5.242;2022-07-29T07:57:29;101366.0;;;24.59;43.95
32452;BME280;45528;52.102;5.242;2022-07-29T07:59:15;101368.0;;;24.49;43.7
32452;BME280;45528;52.102;5.242;2022-07-29T08:01:02;101363.0;;;24.54;44.24
32452;BME280;45528;52.102;5.242;2022-07-29T08:02:50;101356.0;;;24.5;44.06
32452;BME280;45528;52.102;5.242;2022-07-29T08:04:37;101367.0;;;24.73;43.34
32452;BME280;45528;52.102;5.242;2022-07-29T08:06:25;101367.0;;;24.9;43.2
32452;BME280;45528;52.102;5.242;2022-07-29T08:09:57;101377.0;;;25.15;42.39
32452;BME280;45528;52.102;5.242;2022-07-29T08:11:43;101381.0;;;25.18;42.53
32452;BME280;45528;52.102;5.242;2022-07-29T08:13:30;101382.0;;;25.28;42.53
32452;BME280;45528;52.102;5.242;2022-07-29T08:15:16;101383.0;;;25.33;42.86
32452;BME280;45528;52.102;5.242;2022-07-29T08:17:03;101380.0;;;25.31;41.75
32452;BME280;45528;52.102;5.242;2022-07-29T08:18:49;101378.0;;;25.26;41.5
32452;BME280;45528;52.102;5.242;2022-07-29T08:22:23;101378.0;;;25.18;42.4
32452;BME280;45528;52.102;5.242;2022-07-29T08:25:13;101378.0;;;25.36;42.74
32452;BME280;45528;52.102;5.242;2022-07-29T08:26:59;101378.0;;;25.47;42.63
32452;BME280;45528;52.102;5.242;2022-07-29T08:28:46;101382.0;;;25.44;41.88
32452;BME280;45528;52.102;5.242;2022-07-29T08:30:34;101386.0;;;25.45;41.86
32452;BME280;45528;52.102;5.242;2022-07-29T08:32:20;101384.0;;;25.6;41.85
32452;BME280;45528;52.102;5.242;2022-07-29T08:34:09;101383.0;;;25.13;42.48
32452;BME280;45528;52.102;5.242;2022-07-29T08:35:55;101380.0;;;25.8;42.12
32452;BME280;45528;52.102;5.242;2022-07-29T08:37:42;101380.0;;;26.04;41.83
32452;BME280;45528;52.102;5.242;2022-07-29T08:41:15;101380.0;;;26.1;41.76
32452;BME280;45528;52.102;5.242;2022-07-29T08:43:05;101386.0;;;26.23;41.01
32452;BME280;45528;52.102;5.242;2022-07-29T08:44:54;101389.0;;;26.06;40.67
32452;BME280;45528;52.102;5.242;2022-07-29T08:46:41;101391.0;;;26.12;40.14
32452;BME280;45528;52.102;5.242;2022-07-29T08:48:29;101389.0;;;26.13;40.46
32452;BME280;45528;52.102;5.242;2022-07-29T08:50:15;101386.0;;;26.28;40.81
32452;BME280;45528;52.102;5.242;2022-07-29T08:53:50;101387.0;;;26.32;40.94
32452;BME280;45528;52.102;5.242;2022-07-29T08:55:38;101385.0;;;26.23;40.67
32452;BME280;45528;52.102;5.242;2022-07-29T08:57:26;101391.0;;;26.39;41.15
32452;BME280;45528;52.102;5.242;2022-07-29T08:59:13;101396.0;;;26.32;41.19
32452;BME280;45528;52.102;5.242;2022-07-29T09:01:01;101396.0;;;26.58;40.17
32452;BME280;45528;52.102;5.242;2022-07-29T09:02:51;101396.0;;;26.6;40.51
32452;BME280;45528;52.102;5.242;2022-07-29T09:06:34;101392.0;;;26.59;40.06
32452;BME280;45528;52.102;5.242;2022-07-29T09:08:23;101393.0;;;26.51;40.19
32452;BME280;45528;52.102;5.242;2022-07-29T09:10:10;101394.0;;;26.89;39.64
32452;BME280;45528;52.102;5.242;2022-07-29T09:11:58;101395.0;;;27.05;39.17
32452;BME280;45528;52.102;5.242;2022-07-29T09:13:46;101393.0;;;27.07;38.61
32452;BME280;45528;52.102;5.242;2022-07-29T09:15:32;101395.0;;;27.2;39.06
32452;BME280;45528;52.102;5.242;2022-07-29T09:19:28;101390.0;;;27.42;39.08
32452;BME280;45528;52.102;5.242;2022-07-29T09:24:15;101381.0;;;27.61;38.6
32452;BME280;45528;52.102;5.242;2022-07-29T09:26:05;101381.0;;;27.71;38.89
32452;BME280;45528;52.102;5.242;2022-07-29T09:27:51;101381.0;;;27.72;38.96
32452;BME280;45528;52.102;5.242;2022-07-29T09:31:33;101378.0;;;27.65;38.97
32452;BME280;45528;52.102;5.242;2022-07-29T09:33:21;101377.0;;;27.74;38.83
32452;BME280;45528;52.102;5.242;2022-07-29T09:35:17;101377.0;;;27.93;38.56
32452;BME280;45528;52.102;5.242;2022-07-29T09:37:05;101373.0;;;27.98;38.32
32452;BME280;45528;52.102;5.242;2022-07-29T09:38:57;101374.0;;;28.06;37.44
32452;BME280;45528;52.102;5.242;2022-07-29T09:40:56;101372.0;;;28.03;37.89
32452;BME280;45528;52.102;5.242;2022-07-29T09:42:43;101369.0;;;27.68;38.07
32452;BME280;45528;52.102;5.242;2022-07-29T09:46:34;101373.0;;;28.03;38.37
32452;BME280;45528;52.102;5.242;2022-07-29T09:48:24;101372.0;;;28.17;38.39
32452;BME280;45528;52.102;5.242;2022-07-29T09:50:10;101376.0;;;28.35;38.14
32452;BME280;45528;52.102;5.242;2022-07-29T09:52:00;101378.0;;;28.42;37.42
32452;BME280;45528;52.102;5.242;2022-07-29T09:53:50;101377.0;;;28.15;36.81
32452;BME280;45528;52.102;5.242;2022-07-29T09:55:52;101378.0;;;28.25;36.92
32452;BME280;45528;52.102;5.242;2022-07-29T09:57:39;101376.0;;;28.29;36.85
32452;BME280;45528;52.102;5.242;2022-07-29T09:59:26;101375.0;;;28.44;37.71
32452;BME280;45528;52.102;5.242;2022-07-29T10:03:01;101386.0;;;28.66;36.99
32452;BME280;45528;52.102;5.242;2022-07-29T10:04:47;101386.0;;;28.68;36.42
32452;BME280;45528;52.102;5.242;2022-07-29T10:06:35;101384.0;;;28.72;37.04
32452;BME280;45528;52.102;5.242;2022-07-29T10:08:41;101385.0;;;28.77;36.65
32452;BME280;45528;52.102;5.242;2022-07-29T10:10:29;101388.0;;;29.07;35.85
32452;BME280;45528;52.102;5.242;2022-07-29T10:12:18;101382.0;;;29.01;35.39
32452;BME280;45528;52.102;5.242;2022-07-29T10:14:05;101388.0;;;29.07;35.21
32452;BME280;45528;52.102;5.242;2022-07-29T10:17:39;101383.0;;;28.93;35.21
32452;BME280;45528;52.102;5.242;2022-07-29T10:19:28;101383.0;;;28.99;34.31
32452;BME280;45528;52.102;5.242;2022-07-29T10:21:15;101381.0;;;29.14;34.89
32452;BME280;45528;52.102;5.242;2022-07-29T10:23:02;101386.0;;;28.96;34.75
32452;BME280;45528;52.102;5.242;2022-07-29T10:24:50;101381.0;;;29.45;34.42
32452;BME280;45528;52.102;5.242;2022-07-29T10:26:41;101382.0;;;29.33;34.47
32452;BME280;45528;52.102;5.242;2022-07-29T10:28:29;101381.0;;;29.37;34.42
32452;BME280;45528;52.102;5.242;2022-07-29T10:32:15;101380.0;;;29.41;33.93
32452;BME280;45528;52.102;5.242;2022-07-29T10:34:13;101378.0;;;29.27;34.29
32452;BME280;45528;52.102;5.242;2022-07-29T10:36:14;101372.0;;;29.21;33.96
32452;BME280;45528;52.102;5.242;2022-07-29T10:38:23;101369.0;;;29.63;34.49
32452;BME280;45528;52.102;5.242;2022-07-29T10:41:56;101371.0;;;29.86;34.24
32452;BME280;45528;52.102;5.242;2022-07-29T10:43:59;101376.0;;;30.07;32.83
32452;BME280;45528;52.102;5.242;2022-07-29T10:45:48;101373.0;;;30.21;32.93
32452;BME280;45528;52.102;5.242;2022-07-29T10:47:36;101370.0;;;30.21;32.67
32452;BME280;45528;52.102;5.242;2022-07-29T10:51:11;101368.0;;;30.2;32.96
32452;BME280;45528;52.102;5.242;2022-07-29T10:52:58;101374.0;;;30.1;33.06
32452;BME280;45528;52.102;5.242;2022-07-29T10:54:48;101374.0;;;30.03;33.89
32452;BME280;45528;52.102;5.242;2022-07-29T10:56:36;101369.0;;;30.19;33.92
32452;BME280;45528;52.102;5.242;2022-07-29T10:58:23;101373.0;;;30.35;33.56
32452;BME280;45528;52.102;5.242;2022-07-29T11:00:29;101371.0;;;30.35;33.29
32452;BME280;45528;52.102;5.242;2022-07-29T11:02:50;101372.0;;;30.05;33.05
32452;BME280;45528;52.102;5.242;2022-07-29T11:05:09;101372.0;;;30.25;33.24
32452;BME280;45528;52.102;5.242;2022-07-29T11:07:08;101371.0;;;30.4;33.55
32452;BME280;45528;52.102;5.242;2022-07-29T11:09:28;101373.0;;;30.32;33.01
32452;BME280;45528;52.102;5.242;2022-07-29T11:13:55;101367.0;;;30.11;32.68
32452;BME280;45528;52.102;5.242;2022-07-29T11:15:57;101370.0;;;30.12;32.99
32452;BME280;45528;52.102;5.242;2022-07-29T11:18:04;101363.0;;;30.13;34.15
32452;BME280;45528;52.102;5.242;2022-07-29T11:20:30;101364.0;;;30.18;34.43
32452;BME280;45528;52.102;5.242;2022-07-29T11:22:32;101367.0;;;30.01;34.21
32452;BME280;45528;52.102;5.242;2022-07-29T11:24:22;101366.0;;;30.33;34.31